createdAt,value
2023-09-10T00:00:56.142Z,9.18
2023-09-10T00:03:24.056Z,10.60
2023-09-10T00:05:51.875Z,9.32
2023-09-10T00:08:19.635Z,10.90
2023-09-10T00:10:47.443Z,10.80
2023-09-10T00:13:16.539Z,9.13
2023-09-10T00:15:44.316Z,10.13
2023-09-10T00:18:12.995Z,10.75
2023-09-10T00:20:40.757Z,10.25
2023-09-10T00:23:08.646Z,9.68
2023-09-10T00:25:36.529Z,11.15
2023-09-10T00:28:04.669Z,9.85
2023-09-10T00:30:33.742Z,9.20
2023-09-10T00:33:01.542Z,9.68
2023-09-10T00:35:29.444Z,9.98
2023-09-10T00:37:59.688Z,9.80
2023-09-10T00:40:29.422Z,9.77
2023-09-10T00:42:57.257Z,9.00
2023-09-10T00:45:25.321Z,9.10
2023-09-10T00:47:54.442Z,8.98
2023-09-10T00:50:22.475Z,8.90
2023-09-10T00:52:51.969Z,8.98
2023-09-10T00:55:20.010Z,9.07
2023-09-10T00:57:48.082Z,8.57
2023-09-10T01:00:16.411Z,8.57
2023-09-10T01:02:45.334Z,8.25
2023-09-10T01:05:14.485Z,7.53
2023-09-10T01:07:42.330Z,8.57
2023-09-10T01:10:10.724Z,7.88
2023-09-10T01:12:41.972Z,7.53
2023-09-10T01:15:10.785Z,7.43
2023-09-10T01:17:42.649Z,7.38
2023-09-10T01:20:39.743Z,7.10
2023-09-10T01:23:10.249Z,6.80
2023-09-10T01:25:39.382Z,6.40
2023-09-10T01:28:07.237Z,6.55
2023-09-10T01:30:35.125Z,6.22
2023-09-10T01:33:08.055Z,6.10
2023-09-10T01:35:37.294Z,6.07
2023-09-10T01:38:08.540Z,5.80
2023-09-10T01:40:37.546Z,5.72
2023-09-10T01:43:07.274Z,5.47
2023-09-10T01:45:35.398Z,6.00
2023-09-10T01:48:03.241Z,5.40
2023-09-10T01:50:31.379Z,5.57
2023-09-10T01:52:59.572Z,5.50
2023-09-10T01:55:27.409Z,5.53
2023-09-10T01:57:55.720Z,5.30
2023-09-10T02:00:24.974Z,5.28
2023-09-10T02:02:52.974Z,4.90
2023-09-10T02:05:20.979Z,5.40
2023-09-10T02:07:48.885Z,5.00
2023-09-10T02:10:16.795Z,4.90
2023-09-10T02:12:44.546Z,4.85
2023-09-10T02:15:13.927Z,4.60
2023-09-10T02:17:44.720Z,4.57
2023-09-10T02:20:14.693Z,5.15
2023-09-10T02:22:42.569Z,5.00
2023-09-10T02:25:10.150Z,4.68
2023-09-10T02:27:37.984Z,5.05
2023-09-10T02:30:08.240Z,4.35
2023-09-10T02:32:36.975Z,4.78
2023-09-10T02:35:07.055Z,4.60
2023-09-10T02:37:34.851Z,4.78
2023-09-10T02:40:02.656Z,4.68
2023-09-10T02:42:30.554Z,4.13
2023-09-10T02:44:59.851Z,3.90
2023-09-10T02:47:28.339Z,4.55
2023-09-10T02:49:56.756Z,4.57
2023-09-10T02:52:27.347Z,4.53
2023-09-10T02:54:55.157Z,4.38
2023-09-10T02:57:22.968Z,4.40
2023-09-10T02:59:50.754Z,4.70
2023-09-10T03:02:18.710Z,4.55
2023-09-10T03:04:46.594Z,4.57
2023-09-10T03:07:14.583Z,4.40
2023-09-10T03:09:43.746Z,4.50
2023-09-10T03:12:21.410Z,4.60
2023-09-10T03:14:49.313Z,4.35
2023-09-10T03:17:17.565Z,4.53
2023-09-10T03:19:45.572Z,4.53
2023-09-10T03:22:15.525Z,4.72
2023-09-10T03:24:44.618Z,4.45
2023-09-10T03:27:12.378Z,4.88
2023-09-10T03:29:40.136Z,4.30
2023-09-10T03:32:08.474Z,4.28
2023-09-10T03:34:38.177Z,4.43
2023-09-10T03:37:07.384Z,4.25
2023-09-10T03:39:35.760Z,4.28
2023-09-10T03:42:05.851Z,4.30
2023-09-10T03:44:33.692Z,4.43
2023-09-10T03:47:01.842Z,4.32
2023-09-10T03:49:30.598Z,4.38
2023-09-10T03:51:58.728Z,4.45
2023-09-10T03:54:26.516Z,4.30
2023-09-10T03:56:54.335Z,4.40
2023-09-10T03:59:23.455Z,4.40
2023-09-10T04:01:51.252Z,4.65
2023-09-10T04:04:19.032Z,4.30
2023-09-10T04:06:46.870Z,4.35
2023-09-10T04:09:14.673Z,4.22
2023-09-10T04:11:42.430Z,4.30
2023-09-10T04:14:10.311Z,4.40
2023-09-10T04:16:39.502Z,4.38
2023-09-10T04:19:07.347Z,4.20
2023-09-10T04:21:35.754Z,4.50
2023-09-10T04:24:03.596Z,4.10
2023-09-10T04:26:31.435Z,4.20
2023-09-10T04:28:59.420Z,4.10
2023-09-10T04:31:27.642Z,4.20
2023-09-10T04:33:56.775Z,4.38
2023-09-10T04:36:25.202Z,4.07
2023-09-10T04:38:53.963Z,4.07
2023-09-10T04:41:21.742Z,4.40
2023-09-10T04:43:49.537Z,4.63
2023-09-10T04:46:17.368Z,4.10
2023-09-10T04:48:46.229Z,4.00
2023-09-10T04:51:15.390Z,4.45
2023-09-10T04:53:45.265Z,4.28
2023-09-10T04:56:13.140Z,4.07
2023-09-10T04:58:41.409Z,4.13
2023-09-10T05:01:09.368Z,4.00
2023-09-10T05:03:37.304Z,4.25
2023-09-10T05:06:06.580Z,4.22
2023-09-10T05:08:35.987Z,4.03
2023-09-10T05:11:03.941Z,4.20
2023-09-10T05:13:31.825Z,4.00
2023-09-10T05:15:59.687Z,4.00
2023-09-10T05:18:27.151Z,4.10
2023-09-10T05:20:55.989Z,4.38
2023-09-10T05:23:25.193Z,4.10
2023-09-10T05:25:54.511Z,4.00
2023-09-10T05:28:22.966Z,3.75
2023-09-10T05:30:50.741Z,4.10
2023-09-10T05:33:18.581Z,3.90
2023-09-10T05:35:55.669Z,4.10
2023-09-10T05:38:24.050Z,4.28
2023-09-10T05:40:51.905Z,3.75
2023-09-10T05:43:20.967Z,4.07
2023-09-10T05:45:48.801Z,3.63
2023-09-10T05:48:16.564Z,4.28
2023-09-10T05:50:44.318Z,3.92
2023-09-10T05:53:12.529Z,4.00
2023-09-10T05:55:41.202Z,3.75
2023-09-10T05:58:09.130Z,4.30
2023-09-10T06:00:38.273Z,4.00
2023-09-10T06:03:08.363Z,3.83
2023-09-10T06:05:36.265Z,3.90
2023-09-10T06:08:04.743Z,4.00
2023-09-10T06:10:33.391Z,3.60
2023-09-10T06:13:01.167Z,4.15
2023-09-10T06:15:29.018Z,3.70
2023-09-10T06:17:58.202Z,4.13
2023-09-10T06:20:26.018Z,3.90
2023-09-10T06:22:54.179Z,4.13
2023-09-10T06:25:21.975Z,4.05
2023-09-10T06:27:49.769Z,4.03
2023-09-10T06:30:18.355Z,3.80
2023-09-10T06:32:46.171Z,3.80
2023-09-10T06:35:15.533Z,3.75
2023-09-10T06:37:43.376Z,4.30
2023-09-10T06:40:12.299Z,3.85
2023-09-10T06:42:40.097Z,4.20
2023-09-10T06:45:18.422Z,4.05
2023-09-10T06:47:46.182Z,3.78
2023-09-10T06:50:15.480Z,3.88
2023-09-10T06:52:43.316Z,3.72
2023-09-10T06:55:11.012Z,3.72
2023-09-10T06:57:38.765Z,4.00
2023-09-10T07:00:07.861Z,3.88
2023-09-10T07:02:35.841Z,3.50
2023-09-10T07:05:04.713Z,3.90
2023-09-10T07:07:33.784Z,3.45
2023-09-10T07:10:01.531Z,3.80
2023-09-10T07:12:29.316Z,4.03
2023-09-10T07:14:57.066Z,3.90
2023-09-10T07:17:24.913Z,4.30
2023-09-10T07:19:52.686Z,3.72
2023-09-10T07:22:20.552Z,4.03
2023-09-10T07:24:49.684Z,4.00
2023-09-10T07:27:17.432Z,4.03
2023-09-10T07:29:45.213Z,4.18
2023-09-10T07:32:13.066Z,3.83
2023-09-10T07:34:40.839Z,3.95
2023-09-10T07:37:11.173Z,4.10
2023-09-10T07:39:39.987Z,3.55
2023-09-10T07:42:09.100Z,4.07
2023-09-10T07:44:36.973Z,4.05
2023-09-10T07:47:05.095Z,3.80
2023-09-10T07:49:32.855Z,3.70
2023-09-10T07:52:00.589Z,4.07
2023-09-10T07:54:28.343Z,4.20
2023-09-10T07:56:56.215Z,4.13
2023-09-10T07:59:25.354Z,3.88
2023-09-10T08:01:53.181Z,3.65
2023-09-10T08:04:21.202Z,3.88
2023-09-10T08:06:49.010Z,4.22
2023-09-10T08:09:16.783Z,3.83
2023-09-10T08:11:44.535Z,3.80
2023-09-10T08:14:13.212Z,4.25
2023-09-10T08:16:42.372Z,3.80
2023-09-10T08:19:10.110Z,4.05
2023-09-10T08:21:37.839Z,4.13
2023-09-10T08:24:06.363Z,3.90
2023-09-10T08:26:34.396Z,3.90
2023-09-10T08:29:02.162Z,4.07
2023-09-10T08:31:29.989Z,4.15
2023-09-10T08:33:59.145Z,3.80
2023-09-10T08:36:26.860Z,4.00
2023-09-10T08:38:54.700Z,4.03
2023-09-10T08:41:26.379Z,3.97
2023-09-10T08:43:56.091Z,4.22
2023-09-10T08:46:24.348Z,3.80
2023-09-10T08:48:52.883Z,4.00
2023-09-10T08:51:21.972Z,3.97
2023-09-10T08:53:49.808Z,3.97
2023-09-10T08:56:17.722Z,3.75
2023-09-10T08:58:47.972Z,4.28
2023-09-10T09:01:15.804Z,4.38
2023-09-10T09:03:43.653Z,4.00
2023-09-10T09:06:11.470Z,4.10
2023-09-10T09:08:40.873Z,4.10
2023-09-10T09:11:10.123Z,4.10
2023-09-10T09:13:41.299Z,3.75
2023-09-10T09:16:09.564Z,4.20
2023-09-10T09:18:38.055Z,3.67
2023-09-10T09:21:08.115Z,4.32
2023-09-10T09:23:39.922Z,4.50
2023-09-10T09:26:08.181Z,4.32
2023-09-10T09:28:36.007Z,3.80
2023-09-10T09:31:04.054Z,4.10
2023-09-10T09:33:31.834Z,4.13
2023-09-10T09:36:07.365Z,4.40
2023-09-10T09:38:35.335Z,4.10
2023-09-10T09:41:06.072Z,3.97
2023-09-10T09:43:35.294Z,4.40
2023-09-10T09:46:03.304Z,4.00
2023-09-10T09:48:31.203Z,4.10
2023-09-10T09:50:59.375Z,4.30
2023-09-10T09:53:27.335Z,3.90
2023-09-10T09:55:56.402Z,4.10
2023-09-10T09:58:25.699Z,4.28
2023-09-10T10:00:53.582Z,4.22
2023-09-10T10:03:21.582Z,4.13
2023-09-10T10:05:52.164Z,3.92
2023-09-10T10:08:20.133Z,4.25
2023-09-10T10:10:48.982Z,3.97
2023-09-10T10:13:17.976Z,4.03
2023-09-10T10:15:48.096Z,4.30
2023-09-10T10:18:17.008Z,3.95
2023-09-10T10:20:47.316Z,4.30
2023-09-10T10:23:24.713Z,4.50
2023-09-10T10:25:53.945Z,4.43
2023-09-10T10:28:21.932Z,4.13
2023-09-10T10:30:54.114Z,4.07
2023-09-10T10:33:23.165Z,4.10
2023-09-10T10:35:57.338Z,4.03
2023-09-10T10:38:25.168Z,3.95
2023-09-10T10:40:53.041Z,4.05
2023-09-10T10:43:22.475Z,3.83
2023-09-10T10:45:51.667Z,4.10
2023-09-10T10:48:20.838Z,3.95
2023-09-10T10:50:49.023Z,3.95
2023-09-10T10:53:19.665Z,3.88
2023-09-10T10:55:47.737Z,4.30
2023-09-10T10:58:15.513Z,4.30
2023-09-10T11:00:43.609Z,4.00
2023-09-10T11:03:14.352Z,4.18
2023-09-10T11:06:05.760Z,3.83
2023-09-10T11:08:34.505Z,3.78
2023-09-10T11:11:03.082Z,3.95
2023-09-10T11:13:31.024Z,4.15
2023-09-10T11:16:25.582Z,4.07
2023-09-10T11:18:54.761Z,4.50
2023-09-10T11:21:22.602Z,4.63
2023-09-10T11:24:28.161Z,4.35
2023-09-10T11:27:20.320Z,4.90
2023-09-10T11:30:05.928Z,4.53
2023-09-10T11:32:33.890Z,4.72
2023-09-10T11:35:25.890Z,4.82
2023-09-10T11:37:54.338Z,4.60
2023-09-10T11:40:22.895Z,3.97
2023-09-10T11:42:51.615Z,4.20
2023-09-10T11:45:20.338Z,4.25
2023-09-10T11:47:49.002Z,4.72
2023-09-10T11:50:24.701Z,4.68
2023-09-10T11:52:54.200Z,4.60
2023-09-10T11:55:22.394Z,4.75
2023-09-10T11:57:51.527Z,4.45
2023-09-10T12:00:19.429Z,4.88
2023-09-10T12:02:47.258Z,4.80
2023-09-10T12:05:15.087Z,4.80
2023-09-10T12:07:45.353Z,5.03
2023-09-10T12:10:14.686Z,4.55
2023-09-10T12:12:43.049Z,4.72
2023-09-10T12:15:11.302Z,4.30
2023-09-10T12:17:39.121Z,4.68
2023-09-10T12:20:07.939Z,5.20
2023-09-10T12:22:35.748Z,4.30
2023-09-10T12:25:03.965Z,4.93
2023-09-10T12:27:33.223Z,4.93
2023-09-10T12:30:01.027Z,4.80
2023-09-10T12:32:28.929Z,4.80
2023-09-10T12:34:56.796Z,5.10
2023-09-10T12:37:24.620Z,5.38
2023-09-10T12:39:52.965Z,4.75
2023-09-10T12:42:20.757Z,4.80
2023-09-10T12:44:49.883Z,4.70
2023-09-10T12:47:17.789Z,5.10
2023-09-10T12:49:45.749Z,5.03
2023-09-10T12:52:13.502Z,5.07
2023-09-10T12:54:41.724Z,5.10
2023-09-10T12:57:11.488Z,5.20
2023-09-10T12:59:39.367Z,4.90
2023-09-10T13:02:10.731Z,4.93
2023-09-10T13:04:38.658Z,4.75
2023-09-10T13:07:06.419Z,4.88
2023-09-10T13:09:35.326Z,5.00
2023-09-10T13:12:03.659Z,5.50
2023-09-10T13:14:31.633Z,5.07
2023-09-10T13:16:59.660Z,4.82
2023-09-10T13:19:28.859Z,4.65
2023-09-10T13:21:56.595Z,4.80
2023-09-10T13:24:24.376Z,5.10
2023-09-10T13:26:52.183Z,5.03
2023-09-10T13:29:20.004Z,4.93
2023-09-10T13:31:47.790Z,4.88
2023-09-10T13:34:15.572Z,5.25
2023-09-10T13:36:44.774Z,4.97
2023-09-10T13:39:13.360Z,4.47
2023-09-10T13:41:41.287Z,4.55
2023-09-10T13:44:09.083Z,4.90
2023-09-10T13:46:37.929Z,5.20
2023-09-10T13:49:06.176Z,4.93
2023-09-10T13:51:34.219Z,4.72
2023-09-10T13:54:03.336Z,5.07
2023-09-10T13:56:32.652Z,5.22
2023-09-10T13:59:00.539Z,4.82
2023-09-10T14:01:28.664Z,7.07
2023-09-10T14:03:56.514Z,9.35
2023-09-10T14:06:24.475Z,5.70
2023-09-10T14:08:52.434Z,5.85
2023-09-10T14:11:21.798Z,7.13
2023-09-10T14:13:49.672Z,6.22
2023-09-10T14:16:18.979Z,5.80
2023-09-10T14:18:46.838Z,6.20
2023-09-10T14:21:14.624Z,6.70
2023-09-10T14:23:42.392Z,5.97
2023-09-10T14:26:10.414Z,6.40
2023-09-10T14:28:39.897Z,5.45
2023-09-10T14:31:07.949Z,5.60
2023-09-10T14:33:35.913Z,6.72
2023-09-10T14:36:03.800Z,5.75
2023-09-10T14:38:31.676Z,5.55
2023-09-10T14:40:59.535Z,5.05
2023-09-10T14:43:27.423Z,5.32
2023-09-10T14:45:57.871Z,5.93
2023-09-10T14:48:25.761Z,5.80
2023-09-10T14:50:53.598Z,5.53
2023-09-10T14:53:21.552Z,5.65
2023-09-10T14:55:49.400Z,5.90
2023-09-10T14:58:17.217Z,5.47
2023-09-10T15:00:45.151Z,5.35
2023-09-10T15:03:14.429Z,5.53
2023-09-10T15:05:42.446Z,5.40
2023-09-10T15:08:10.346Z,5.53
2023-09-10T15:10:38.143Z,5.70
2023-09-10T15:13:06.158Z,5.20
2023-09-10T15:15:33.962Z,4.95
2023-09-10T15:18:01.859Z,5.55
2023-09-10T15:20:31.105Z,5.70
2023-09-10T15:22:58.874Z,5.35
2023-09-10T15:25:26.636Z,5.40
2023-09-10T15:27:54.392Z,5.47
2023-09-10T15:30:22.202Z,5.43
2023-09-10T15:32:50.045Z,5.63
2023-09-10T15:35:17.947Z,5.45
2023-09-10T15:37:47.194Z,5.85
2023-09-10T15:40:15.111Z,5.80
2023-09-10T15:42:42.906Z,5.30
2023-09-10T15:45:11.473Z,5.70
2023-09-10T15:47:39.405Z,5.30
2023-09-10T15:50:08.617Z,5.28
2023-09-10T15:52:36.509Z,5.60
2023-09-10T15:55:06.109Z,5.35
2023-09-10T15:57:33.965Z,5.40
2023-09-10T16:00:01.795Z,5.35
2023-09-10T16:02:32.836Z,5.35
2023-09-10T16:05:01.297Z,5.78
2023-09-10T16:07:29.183Z,5.63
2023-09-10T16:09:56.939Z,5.30
2023-09-10T16:12:26.168Z,5.68
2023-09-10T16:14:53.933Z,5.32
2023-09-10T16:17:21.825Z,5.55
2023-09-10T16:19:49.869Z,5.65
2023-09-10T16:22:22.331Z,5.30
2023-09-10T16:24:50.957Z,5.20
2023-09-10T16:27:18.787Z,5.35
2023-09-10T16:29:47.878Z,5.38
2023-09-10T16:32:16.265Z,5.53
2023-09-10T16:34:44.236Z,4.70
2023-09-10T16:37:12.028Z,5.38
2023-09-10T16:39:39.805Z,5.15
2023-09-10T16:42:07.596Z,4.80
2023-09-10T16:44:35.404Z,5.22
2023-09-10T16:47:04.873Z,5.22
2023-09-10T16:49:32.712Z,5.20
2023-09-10T16:52:00.482Z,5.25
2023-09-10T16:54:28.358Z,5.13
2023-09-10T16:56:56.402Z,5.15
2023-09-10T16:59:24.258Z,5.22
2023-09-10T17:01:52.112Z,5.28
2023-09-10T17:04:21.264Z,5.20
2023-09-10T17:06:49.394Z,5.20
2023-09-10T17:09:17.680Z,5.07
2023-09-10T17:11:45.526Z,4.68
2023-09-10T17:14:13.373Z,5.20
2023-09-10T17:16:42.225Z,5.35
2023-09-10T17:19:10.038Z,4.75
2023-09-10T17:21:39.135Z,5.05
2023-09-10T17:24:09.165Z,4.82
2023-09-10T17:26:36.978Z,4.68
2023-09-10T17:29:05.649Z,5.30
2023-09-10T17:31:33.502Z,4.45
2023-09-10T17:34:02.059Z,5.20
2023-09-10T17:36:29.853Z,4.55
2023-09-10T17:38:58.955Z,4.90
2023-09-10T17:41:27.655Z,5.18
2023-09-10T17:43:55.447Z,4.60
2023-09-10T17:46:26.122Z,4.88
2023-09-10T17:48:53.922Z,4.47
2023-09-10T17:51:21.793Z,4.78
2023-09-10T17:53:49.658Z,4.80
2023-09-10T17:56:19.061Z,5.07
2023-09-10T17:58:46.868Z,4.88
2023-09-10T18:01:14.653Z,4.63
2023-09-10T18:03:43.896Z,4.88
2023-09-10T18:06:12.228Z,4.60
2023-09-10T18:08:40.114Z,4.60
2023-09-10T18:11:08.057Z,5.03
2023-09-10T18:13:40.774Z,4.40
2023-09-10T18:16:09.979Z,4.85
2023-09-10T18:18:37.803Z,4.88
2023-09-10T18:21:05.682Z,4.57
2023-09-10T18:23:36.004Z,4.82
2023-09-10T18:26:04.025Z,4.65
2023-09-10T18:28:31.835Z,4.50
2023-09-10T18:31:04.914Z,4.68
2023-09-10T18:33:34.920Z,4.95
2023-09-10T18:36:03.290Z,4.50
2023-09-10T18:38:31.243Z,4.60
2023-09-10T18:40:59.087Z,4.78
2023-09-10T18:43:26.874Z,4.47
2023-09-10T18:45:56.320Z,5.05
2023-09-10T18:48:25.521Z,4.47
2023-09-10T18:50:53.302Z,4.65
2023-09-10T18:53:21.514Z,4.47
2023-09-10T18:55:49.429Z,4.30
2023-09-10T18:58:17.285Z,4.57
2023-09-10T19:00:45.137Z,4.97
2023-09-10T19:03:13.108Z,4.28
2023-09-10T19:05:44.561Z,4.40
2023-09-10T19:08:13.944Z,4.93
2023-09-10T19:10:42.824Z,4.43
2023-09-10T19:13:10.635Z,4.50
2023-09-10T19:15:39.929Z,4.50
2023-09-10T19:18:08.050Z,4.40
2023-09-10T19:20:35.950Z,4.20
2023-09-10T19:23:05.467Z,4.53
2023-09-10T19:25:33.235Z,4.50
2023-09-10T19:28:01.779Z,4.97
2023-09-10T19:30:29.558Z,4.65
2023-09-10T19:32:57.452Z,4.47
2023-09-10T19:35:25.333Z,4.32
2023-09-10T19:37:54.031Z,4.43
2023-09-10T19:40:23.146Z,4.40
2023-09-10T19:42:50.981Z,3.97
2023-09-10T19:45:19.366Z,4.53
2023-09-10T19:47:48.081Z,4.60
2023-09-10T19:50:16.160Z,4.18
2023-09-10T19:52:44.746Z,4.50
2023-09-10T19:55:12.587Z,4.45
2023-09-10T19:57:41.756Z,4.57
2023-09-10T20:00:10.297Z,4.30
2023-09-10T20:02:41.694Z,4.32
2023-09-10T20:05:09.789Z,4.43
2023-09-10T20:07:41.666Z,4.22
2023-09-10T20:10:10.942Z,4.28
2023-09-10T20:12:38.648Z,4.32
2023-09-10T20:15:08.823Z,4.25
2023-09-10T20:17:36.682Z,4.20
2023-09-10T20:20:05.210Z,4.10
2023-09-10T20:22:32.987Z,4.60
2023-09-10T20:25:00.740Z,3.90
2023-09-10T20:27:28.512Z,4.28
2023-09-10T20:29:56.275Z,4.25
2023-09-10T20:32:25.770Z,4.20
2023-09-10T20:34:54.615Z,4.35
2023-09-10T20:37:22.404Z,4.28
2023-09-10T20:39:55.242Z,4.30
2023-09-10T20:42:23.062Z,4.03
2023-09-10T20:44:50.849Z,4.30
2023-09-10T20:47:18.881Z,4.20
2023-09-10T20:49:48.046Z,4.50
2023-09-10T20:52:15.881Z,4.43
2023-09-10T20:54:43.630Z,4.00
2023-09-10T20:57:12.828Z,4.35
2023-09-10T20:59:40.619Z,4.18
2023-09-10T21:02:08.491Z,3.53
2023-09-10T21:04:36.652Z,4.40
2023-09-10T21:07:06.163Z,4.13
2023-09-10T21:09:34.108Z,3.58
2023-09-10T21:12:01.847Z,4.25
2023-09-10T21:14:40.450Z,4.40
2023-09-10T21:17:10.709Z,4.28
2023-09-10T21:19:38.802Z,4.20
2023-09-10T21:22:07.943Z,3.75
2023-09-10T21:24:35.905Z,4.03
2023-09-10T21:27:04.176Z,4.25
2023-09-10T21:29:31.973Z,4.40
2023-09-10T21:31:59.830Z,4.03
2023-09-10T21:34:27.624Z,3.90
2023-09-10T21:36:55.462Z,4.40
2023-09-10T21:39:26.496Z,4.10
2023-09-10T21:41:54.433Z,4.30
2023-09-10T21:44:23.173Z,3.97
2023-09-10T21:46:51.315Z,4.28
2023-09-10T21:49:20.062Z,4.30
2023-09-10T21:51:47.808Z,4.40
2023-09-10T21:54:17.773Z,4.30
2023-09-10T21:56:47.251Z,4.18
2023-09-10T21:59:15.019Z,4.25
2023-09-10T22:01:42.858Z,4.15
2023-09-10T22:04:10.746Z,4.45
2023-09-10T22:06:38.645Z,4.35
2023-09-10T22:09:06.477Z,4.47
2023-09-10T22:11:34.960Z,4.05
2023-09-10T22:14:08.135Z,4.00
2023-09-10T22:16:36.028Z,3.78
2023-09-10T22:19:04.093Z,4.05
2023-09-10T22:21:31.898Z,4.20
2023-09-10T22:23:59.684Z,4.13
2023-09-10T22:26:28.026Z,3.88
2023-09-10T22:28:55.968Z,4.00
2023-09-10T22:31:25.108Z,3.85
2023-09-10T22:33:52.921Z,4.20
2023-09-10T22:36:35.106Z,4.20
2023-09-10T22:39:06.592Z,3.90
2023-09-10T22:41:34.498Z,4.03
2023-09-10T22:44:02.323Z,4.10
2023-09-10T22:46:31.431Z,4.05
2023-09-10T22:48:59.187Z,3.72
2023-09-10T22:51:28.301Z,4.20
2023-09-10T22:53:56.090Z,3.65
2023-09-10T22:56:24.559Z,3.67
2023-09-10T22:58:52.414Z,4.10
2023-09-10T23:01:21.635Z,4.25
2023-09-10T23:03:51.020Z,4.00
2023-09-10T23:06:18.827Z,4.00
2023-09-10T23:08:46.679Z,3.55
2023-09-10T23:11:14.526Z,3.83
2023-09-10T23:13:42.396Z,3.72
2023-09-10T23:16:10.158Z,4.28
2023-09-10T23:18:38.067Z,3.50
2023-09-10T23:21:07.171Z,3.88
2023-09-10T23:23:35.010Z,4.20
2023-09-10T23:26:03.031Z,4.13
2023-09-10T23:28:31.247Z,3.85
2023-09-10T23:30:59.078Z,4.00
2023-09-10T23:33:27.061Z,4.07
2023-09-10T23:35:55.103Z,4.15
2023-09-10T23:38:29.178Z,3.90
2023-09-10T23:40:57.367Z,4.22
2023-09-10T23:43:25.093Z,3.78
2023-09-10T23:45:52.832Z,3.90
2023-09-10T23:48:20.682Z,4.18
2023-09-10T23:50:48.655Z,3.97
2023-09-10T23:53:16.508Z,3.60
2023-09-10T23:55:45.743Z,4.15
2023-09-10T23:58:13.546Z,4.07
